Time;durP1;ratioP1;P1;durP2;ratioP2;P2;SDS_P1;SDS_P2;PMS_P1;PMS_P2;Temp;Humidity;BMP_temperature;BMP_pressure;BME280_temperature;BME280_humidity;BME280_pressure;Samples;Min_cycle;Max_cycle;Signal;HPM_P1;HPM_P2
2023/02/06 00:00:38;;;;;;;42.67;3.90;;;4.30;99.90;;;;;;5046699;28;20041;-69
2023/02/06 00:03:04;;;;;;;47.28;4.95;;;4.40;99.90;;;;;;5029328;28;20089;-69
2023/02/06 00:05:30;;;;;;;48.60;4.78;;;4.40;99.90;;;;;;5045911;28;20040;-69
2023/02/06 00:07:56;;;;;;;52.35;5.78;;;4.40;99.90;;;;;;5046982;28;20052;-69
2023/02/06 00:10:22;;;;;;;41.65;4.32;;;4.40;99.90;;;;;;5047151;28;20455;-69
2023/02/06 00:12:48;;;;;;;57.40;5.50;;;4.20;99.90;;;;;;5045282;28;20048;-69
2023/02/06 00:15:14;;;;;;;67.00;5.95;;;4.40;99.90;;;;;;5048284;28;20136;-69
2023/02/06 00:17:39;;;;;;;52.63;4.88;;;4.30;99.90;;;;;;5079052;28;20045;-69
2023/02/06 00:20:06;;;;;;;42.22;5.38;;;4.40;99.90;;;;;;5064121;28;20037;-69
2023/02/06 00:22:33;;;;;;;44.20;4.85;;;4.40;99.90;;;;;;5046576;28;20057;-69
2023/02/06 00:24:59;;;;;;;47.63;4.68;;;4.40;99.90;;;;;;5047318;28;20490;-69
2023/02/06 00:27:25;;;;;;;42.78;4.97;;;4.40;99.90;;;;;;5047747;28;20127;-69
2023/02/06 00:29:51;;;;;;;50.53;5.32;;;4.40;99.90;;;;;;5066798;28;20051;-69
2023/02/06 00:32:17;;;;;;;47.35;5.00;;;4.40;99.90;;;;;;5047729;28;20049;-69
2023/02/06 00:34:50;;;;;;;54.40;5.45;;;4.40;99.90;;;;;;5028427;28;20045;-69
2023/02/06 00:37:16;;;;;;;47.25;4.30;;;4.40;99.90;;;;;;5023163;28;20048;-69
2023/02/06 00:39:42;;;;;;;54.53;5.57;;;4.30;99.90;;;;;;5045914;28;20459;-69
2023/02/06 00:42:08;;;;;;;40.95;5.57;;;4.30;99.90;;;;;;5046745;28;20079;-69
2023/02/06 00:44:34;;;;;;;48.55;4.78;;;4.40;99.90;;;;;;5046561;28;20041;-69
2023/02/06 00:47:00;;;;;;;42.83;4.53;;;4.30;99.90;;;;;;5045784;28;20056;-69
2023/02/06 00:49:26;;;;;;;58.05;4.93;;;4.30;99.90;;;;;;5080533;28;20045;-69
2023/02/06 00:51:51;;;;;;;37.50;4.25;;;4.30;99.90;;;;;;5045450;28;20094;-69
2023/02/06 00:54:21;;;;;;;42.88;4.95;;;4.30;99.90;;;;;;5035694;28;20488;-69
2023/02/06 00:56:47;;;;;;;44.08;5.25;;;4.30;99.90;;;;;;5060421;28;20053;-69
2023/02/06 00:59:13;;;;;;;36.63;4.07;;;4.20;99.90;;;;;;5047232;28;20059;-69
2023/02/06 01:01:39;;;;;;;44.85;4.18;;;4.30;99.90;;;;;;5047424;28;20389;-69
2023/02/06 01:04:05;;;;;;;43.13;4.78;;;4.30;99.90;;;;;;5079346;28;20056;-69
2023/02/06 01:06:31;;;;;;;52.28;5.57;;;4.40;99.90;;;;;;5079562;28;20158;-69
2023/02/06 01:08:57;;;;;;;41.63;4.43;;;4.40;99.90;;;;;;5046900;28;20083;-69
2023/02/06 01:11:24;;;;;;;40.10;5.13;;;4.50;99.90;;;;;;5080367;28;20048;-69
2023/02/06 01:13:50;;;;;;;41.10;4.45;;;4.50;99.90;;;;;;5061448;28;20044;-69
2023/02/06 01:16:20;;;;;;;56.75;6.22;;;4.60;99.90;;;;;;5046281;28;20905;-69
2023/02/06 01:18:46;;;;;;;59.45;5.97;;;4.70;99.90;;;;;;5078771;28;20111;-69
2023/02/06 01:21:19;;;;;;;40.33;5.10;;;4.70;99.90;;;;;;5047187;28;20056;-69
2023/02/06 01:23:46;;;;;;;63.95;5.25;;;4.80;99.90;;;;;;5062433;28;20056;-69
2023/02/06 01:26:14;;;;;;;48.17;5.30;;;4.80;99.90;;;;;;5045185;28;20048;-69
2023/02/06 01:28:41;;;;;;;42.47;4.10;;;4.80;99.90;;;;;;5051115;28;20083;-69
2023/02/06 01:31:27;;;;;;;45.42;5.20;;;4.70;99.90;;;;;;5055007;28;20088;-69
2023/02/06 01:33:55;;;;;;;35.08;4.00;;;4.70;99.90;;;;;;5035411;28;20494;-69
2023/02/06 01:36:20;;;;;;;43.15;4.50;;;4.60;99.90;;;;;;5079212;28;20057;-69
2023/02/06 01:38:47;;;;;;;46.72;4.30;;;4.60;99.90;;;;;;5047706;28;20120;-69
2023/02/06 01:41:15;;;;;;;32.00;3.85;;;4.50;99.90;;;;;;5079359;28;20446;-69
2023/02/06 01:43:45;;;;;;;49.10;4.28;;;4.50;99.90;;;;;;5052598;28;20510;-69
2023/02/06 01:46:11;;;;;;;;;;;4.50;99.90;;;;;;5080371;28;20047;-69
2023/02/06 01:48:39;;;;;;;34.55;4.28;;;4.50;99.90;;;;;;5044893;28;20374;-69
2023/02/06 01:51:11;;;;;;;57.05;6.10;;;4.50;99.90;;;;;;5080833;28;20135;-69
2023/02/06 01:53:39;;;;;;;51.60;4.93;;;4.50;99.90;;;;;;5051632;28;20106;-69
2023/02/06 01:56:07;;;;;;;53.92;5.97;;;4.50;99.90;;;;;;5080522;28;20059;-69
2023/02/06 01:58:37;;;;;;;49.20;4.70;;;4.50;99.90;;;;;;5064478;28;20044;-69
2023/02/06 02:01:04;;;;;;;67.70;6.07;;;4.50;99.90;;;;;;5027595;28;20114;-69
2023/02/06 02:03:35;;;;;;;47.25;5.13;;;4.60;99.90;;;;;;5079841;28;20118;-69
2023/02/06 02:06:06;;;;;;;57.65;5.50;;;4.70;99.90;;;;;;5036636;28;20036;-69
2023/02/06 02:08:38;;;;;;;49.42;5.43;;;4.60;99.90;;;;;;5054805;28;20071;-69
2023/02/06 02:11:07;;;;;;;52.70;4.95;;;4.60;99.90;;;;;;5055052;28;20485;-69
2023/02/06 02:13:35;;;;;;;70.63;6.30;;;4.60;99.90;;;;;;5052485;28;20053;-69
2023/02/06 02:16:18;;;;;;;52.42;5.22;;;4.60;99.90;;;;;;5078786;28;20121;-69
2023/02/06 02:19:16;;;;;;;60.72;5.75;;;4.60;99.90;;;;;;5046728;28;20045;-69
2023/02/06 02:22:23;;;;;;;46.00;5.40;;;4.60;99.90;;;;;;5034342;28;20131;-69
2023/02/06 02:25:27;;;;;;;43.45;6.53;;;4.50;99.90;;;;;;5082961;28;20053;-69
2023/02/06 02:28:17;;;;;;;44.15;4.32;;;4.40;99.90;;;;;;5048699;28;20076;-69
2023/02/06 02:30:58;;;;;;;59.45;4.93;;;4.30;99.90;;;;;;5060634;28;20040;-69
2023/02/06 02:33:33;;;;;;;52.78;4.72;;;4.30;99.90;;;;;;5036672;28;20040;-69
2023/02/06 02:36:34;;;;;;;45.85;4.20;;;4.30;99.90;;;;;;5049180;28;20237;-69
2023/02/06 02:39:20;;;;;;;48.50;4.82;;;4.30;99.90;;;;;;5072984;28;20107;-69
2023/02/06 02:42:00;;;;;;;53.47;4.85;;;4.20;99.90;;;;;;5083182;28;20045;-69
2023/02/06 02:44:30;;;;;;;50.92;4.47;;;4.20;99.90;;;;;;5081959;28;20072;-69
2023/02/06 02:47:00;;;;;;;65.35;5.43;;;4.30;99.90;;;;;;5047681;28;20418;-69
2023/02/06 02:49:31;;;;;;;53.28;4.22;;;4.30;99.90;;;;;;5065073;28;20554;-69
2023/02/06 02:51:58;;;;;;;57.70;6.10;;;4.30;99.90;;;;;;5048513;28;20087;-69
2023/02/06 02:54:25;;;;;;;58.47;5.40;;;4.30;99.90;;;;;;5049060;28;20045;-69
2023/02/06 02:56:52;;;;;;;63.58;5.03;;;4.20;99.90;;;;;;5047307;28;20041;-69
2023/02/06 02:59:24;;;;;;;54.40;4.53;;;4.20;99.90;;;;;;5050378;28;20159;-69
2023/02/06 03:02:00;;;;;;;52.70;4.47;;;4.10;99.90;;;;;;5064469;28;20116;-69
2023/02/06 03:04:58;;;;;;;55.40;4.85;;;4.10;99.90;;;;;;5082521;28;20060;-69
2023/02/06 03:07:30;;;;;;;39.85;4.53;;;4.00;99.90;;;;;;5053888;28;20140;-69
2023/02/06 03:10:32;;;;;;;58.28;6.07;;;4.00;99.90;;;;;;5081494;28;20407;-69
2023/02/06 03:13:20;;;;;;;62.88;5.40;;;4.00;99.90;;;;;;5082337;28;20135;-69
2023/02/06 03:15:57;;;;;;;53.75;4.53;;;4.00;99.90;;;;;;5081702;28;20071;-69
2023/02/06 03:18:35;;;;;;;58.58;5.55;;;4.00;99.90;;;;;;5049661;28;20088;-69
2023/02/06 03:21:03;;;;;;;65.32;4.15;;;4.00;99.90;;;;;;5082039;28;20064;-69
2023/02/06 03:23:33;;;;;;;54.42;4.50;;;4.00;99.90;;;;;;5086385;28;20048;-69
2023/02/06 03:26:02;;;;;;;51.33;4.97;;;4.10;99.90;;;;;;5081633;28;20040;-69
2023/02/06 03:28:37;;;;;;;51.30;4.32;;;4.10;99.90;;;;;;5049529;28;20795;-69
2023/02/06 03:31:06;;;;;;;48.25;4.03;;;4.10;99.90;;;;;;5081065;28;20056;-69
2023/02/06 03:33:43;;;;;;;50.00;4.03;;;4.10;99.90;;;;;;5082010;28;20099;-69
2023/02/06 03:36:15;;;;;;;52.90;4.43;;;4.20;99.90;;;;;;5081323;28;20053;-69
2023/02/06 03:38:47;;;;;;;38.92;4.07;;;4.20;99.90;;;;;;5064980;28;20033;-69
2023/02/06 03:41:15;;;;;;;42.25;4.47;;;4.20;99.90;;;;;;5080760;28;20084;-69
2023/02/06 03:43:44;;;;;;;38.17;4.05;;;4.20;99.90;;;;;;5081648;28;20456;-69
2023/02/06 03:46:11;;;;;;;59.08;4.97;;;4.10;99.90;;;;;;5081363;28;20364;-69
2023/02/06 03:48:48;;;;;;;48.75;4.88;;;4.20;99.90;;;;;;5048131;28;20056;-69
2023/02/06 03:51:25;;;;;;;47.63;4.60;;;4.20;99.90;;;;;;5081196;28;20053;-69
2023/02/06 03:53:53;;;;;;;38.38;3.60;;;4.20;99.90;;;;;;5048637;28;20449;-69
2023/02/06 03:56:28;;;;;;;41.03;4.25;;;4.20;99.90;;;;;;5081009;28;20057;-69
2023/02/06 03:58:53;;;;;;;53.70;4.63;;;4.20;99.90;;;;;;5080889;28;20066;-69
2023/02/06 04:01:20;;;;;;;39.13;4.35;;;4.30;99.90;;;;;;5030042;28;20127;-69
2023/02/06 04:03:46;;;;;;;59.47;4.03;;;4.30;99.90;;;;;;5047754;28;20065;-69
2023/02/06 04:06:12;;;;;;;49.60;4.40;;;4.30;99.90;;;;;;5063080;28;20075;-69
2023/02/06 04:08:39;;;;;;;61.17;4.65;;;4.30;99.90;;;;;;5057238;28;20052;-69
2023/02/06 04:11:04;;;;;;;44.78;4.60;;;4.30;99.90;;;;;;5048171;28;20446;-69
2023/02/06 04:13:30;;;;;;;41.53;3.70;;;4.30;99.90;;;;;;5080754;28;20049;-69
2023/02/06 04:15:56;;;;;;;55.33;4.38;;;4.30;99.90;;;;;;5080551;28;20053;-69
2023/02/06 04:18:22;;;;;;;56.70;4.55;;;4.40;99.90;;;;;;5080355;28;20593;-69
2023/02/06 04:20:51;;;;;;;53.67;4.43;;;4.50;99.90;;;;;;5047729;28;20120;-69
2023/02/06 04:23:18;;;;;;;54.78;3.85;;;4.60;99.90;;;;;;5046004;28;20558;-69
2023/02/06 04:25:44;;;;;;;44.60;4.90;;;4.60;99.90;;;;;;5081316;28;20045;-69
2023/02/06 04:28:10;;;;;;;52.55;4.30;;;4.60;99.90;;;;;;5078706;28;20406;-69
2023/02/06 04:30:35;;;;;;;65.32;7.22;;;4.60;99.90;;;;;;5036849;28;20041;-69
2023/02/06 04:33:01;;;;;;;59.28;4.75;;;4.60;99.90;;;;;;5079382;28;20033;-69
2023/02/06 04:35:27;;;;;;;47.47;6.72;;;4.60;99.90;;;;;;5079993;28;20384;-69
2023/02/06 04:37:53;;;;;;;54.13;4.88;;;4.60;99.90;;;;;;5079983;28;20091;-69
2023/02/06 04:40:19;;;;;;;48.17;4.88;;;4.60;99.90;;;;;;5079094;28;20451;-69
2023/02/06 04:42:45;;;;;;;66.57;4.63;;;4.60;99.90;;;;;;5063642;28;20511;-69
2023/02/06 04:45:11;;;;;;;50.97;4.82;;;4.60;99.90;;;;;;5061635;28;20036;-69
2023/02/06 04:47:36;;;;;;;44.83;4.90;;;4.60;99.90;;;;;;5080176;28;20517;-69
2023/02/06 04:50:03;;;;;;;52.45;4.10;;;4.60;99.90;;;;;;5049486;28;20451;-69
2023/02/06 04:52:29;;;;;;;46.47;4.70;;;4.60;99.90;;;;;;5063317;28;20133;-69
2023/02/06 04:54:55;;;;;;;46.78;4.35;;;4.60;99.90;;;;;;5062966;28;20479;-69
2023/02/06 04:57:21;;;;;;;50.35;4.85;;;4.60;99.90;;;;;;5062385;28;20048;-69
2023/02/06 04:59:47;;;;;;;46.65;3.85;;;4.60;99.90;;;;;;5080699;28;20094;-69
2023/02/06 05:02:14;;;;;;;61.15;4.25;;;4.60;99.90;;;;;;5052914;28;20434;-69
2023/02/06 05:04:39;;;;;;;52.47;4.32;;;4.60;99.90;;;;;;5080171;28;20053;-69
2023/02/06 05:07:05;;;;;;;58.47;5.35;;;4.60;99.90;;;;;;5078896;28;20045;-69
2023/02/06 05:09:31;;;;;;;53.30;4.28;;;4.60;99.90;;;;;;5056783;28;20115;-69
2023/02/06 05:11:57;;;;;;;40.20;4.13;;;4.60;99.90;;;;;;5068612;28;20080;-69
2023/02/06 05:14:23;;;;;;;55.67;4.90;;;4.60;99.90;;;;;;5031387;28;20044;-69
2023/02/06 05:16:49;;;;;;;45.65;4.65;;;4.60;99.90;;;;;;5062575;28;20045;-69
2023/02/06 05:19:15;;;;;;;43.75;4.70;;;4.60;99.90;;;;;;5078931;28;20124;-69
2023/02/06 05:21:41;;;;;;;58.35;6.20;;;4.70;99.90;;;;;;5080075;28;20041;-69
2023/02/06 05:24:07;;;;;;;54.58;4.65;;;4.60;99.90;;;;;;5045543;28;20092;-70
2023/02/06 05:26:33;;;;;;;42.00;4.47;;;4.70;99.90;;;;;;5062694;28;20568;-69
2023/02/06 05:28:59;;;;;;;40.25;4.78;;;4.60;99.90;;;;;;5078769;28;20056;-69
2023/02/06 05:31:24;;;;;;;45.50;4.30;;;4.60;99.90;;;;;;5029002;28;20127;-69
2023/02/06 05:33:53;;;;;;;52.80;5.53;;;4.50;99.90;;;;;;5079029;28;20133;-69
2023/02/06 05:36:20;;;;;;;35.35;4.03;;;4.50;99.90;;;;;;5051678;28;20506;-69
2023/02/06 05:38:47;;;;;;;41.80;4.40;;;4.40;99.90;;;;;;5079737;28;20159;-68
2023/02/06 05:41:13;;;;;;;43.53;3.65;;;4.40;99.90;;;;;;5044951;28;20125;-69
2023/02/06 05:43:39;;;;;;;30.98;3.35;;;4.30;99.90;;;;;;5061386;28;20072;-69
2023/02/06 05:46:05;;;;;;;27.70;3.13;;;4.20;99.90;;;;;;5077070;28;20090;-69
2023/02/06 05:48:33;;;;;;;33.13;4.13;;;4.20;99.90;;;;;;5046380;28;20442;-69
2023/02/06 05:51:02;;;;;;;38.28;3.78;;;4.10;99.90;;;;;;5046904;28;20033;-69
2023/02/06 05:53:28;;;;;;;23.52;2.60;;;4.00;99.90;;;;;;5077641;28;20045;-69
2023/02/06 05:55:55;;;;;;;38.85;3.67;;;4.00;99.90;;;;;;5045307;28;20060;-69
2023/02/06 05:58:20;;;;;;;33.83;3.90;;;3.90;99.90;;;;;;5077123;28;20041;-69
2023/02/06 06:00:46;;;;;;;48.42;4.40;;;3.90;99.90;;;;;;5045893;28;20045;-69
2023/02/06 06:03:14;;;;;;;43.00;4.22;;;3.80;99.90;;;;;;5045722;28;20125;-69
2023/02/06 06:05:39;;;;;;;26.40;3.15;;;3.90;99.90;;;;;;5057227;28;20432;-69
2023/02/06 06:08:05;;;;;;;39.30;3.92;;;3.90;99.90;;;;;;5047687;28;20094;-69
2023/02/06 06:10:31;;;;;;;24.10;3.50;;;3.80;99.90;;;;;;5048989;28;20519;-69
2023/02/06 06:12:57;;;;;;;27.23;3.75;;;3.80;99.90;;;;;;5047028;28;20049;-69
2023/02/06 06:15:23;;;;;;;38.20;3.35;;;3.80;99.90;;;;;;5077580;28;20119;-69
2023/02/06 06:17:49;;;;;;;21.10;2.60;;;3.80;99.90;;;;;;5046849;28;20056;-69
2023/02/06 06:20:14;;;;;;;35.92;3.83;;;3.70;99.90;;;;;;5053010;28;20041;-69
2023/02/06 06:22:40;;;;;;;31.10;3.70;;;3.70;99.90;;;;;;5048934;28;20483;-69
2023/02/06 06:25:06;;;;;;;39.03;3.97;;;3.60;99.90;;;;;;5078371;28;20053;-69
2023/02/06 06:27:32;;;;;;;25.02;3.33;;;3.60;99.90;;;;;;5046473;28;20049;-69
2023/02/06 06:29:58;;;;;;;41.60;3.83;;;3.60;99.90;;;;;;5046573;28;20045;-69
2023/02/06 06:32:25;;;;;;;36.92;3.55;;;3.70;99.90;;;;;;5077707;28;20048;-69
2023/02/06 06:34:52;;;;;;;30.70;3.65;;;3.70;99.90;;;;;;5045940;28;20123;-69
2023/02/06 06:37:18;;;;;;;39.20;3.50;;;3.60;99.90;;;;;;5077885;28;20071;-69
2023/02/06 06:39:43;;;;;;;33.17;3.75;;;3.70;99.90;;;;;;5078653;28;20746;-69
2023/02/06 06:42:10;;;;;;;48.42;3.78;;;3.60;99.90;;;;;;5046200;28;20049;-69
2023/02/06 06:44:36;;;;;;;35.03;3.80;;;3.60;99.90;;;;;;5046135;28;20040;-69
2023/02/06 06:47:02;;;;;;;39.33;4.13;;;3.60;99.90;;;;;;5044575;28;20876;-69
2023/02/06 06:49:28;;;;;;;40.58;4.40;;;3.70;99.90;;;;;;5077912;28;20053;-69
2023/02/06 06:51:54;;;;;;;52.85;4.35;;;3.70;99.90;;;;;;5047432;28;20068;-69
2023/02/06 06:54:21;;;;;;;59.80;4.72;;;3.70;99.90;;;;;;5050109;28;20127;-69
2023/02/06 06:56:47;;;;;;;45.47;4.15;;;3.80;99.90;;;;;;5052115;28;20095;-69
2023/02/06 06:59:12;;;;;;;58.45;4.55;;;3.90;99.90;;;;;;5077516;28;20100;-69
2023/02/06 07:01:38;;;;;;;70.68;5.90;;;3.90;99.90;;;;;;5045993;28;20094;-69
2023/02/06 07:04:04;;;;;;;70.03;6.57;;;3.90;99.90;;;;;;5045364;28;20152;-69
2023/02/06 07:06:30;;;;;;;47.60;4.72;;;4.00;99.90;;;;;;5050006;28;20477;-69
2023/02/06 07:08:55;;;;;;;59.67;5.18;;;3.90;99.90;;;;;;5051421;28;20044;-69
2023/02/06 07:11:23;;;;;;;58.83;5.43;;;4.00;99.90;;;;;;5080949;28;20064;-69
2023/02/06 07:13:48;;;;;;;48.33;4.97;;;3.90;99.90;;;;;;5047869;28;20128;-69
2023/02/06 07:16:14;;;;;;;57.85;4.28;;;4.00;99.90;;;;;;5048039;28;20156;-69
2023/02/06 07:18:41;;;;;;;47.92;3.90;;;3.90;99.90;;;;;;5059600;28;20494;-69
2023/02/06 07:21:08;;;;;;;56.05;4.70;;;3.90;99.90;;;;;;5042985;28;20403;-69
2023/02/06 07:23:37;;;;;;;55.50;4.47;;;3.90;99.90;;;;;;5064145;28;20049;-69
2023/02/06 07:26:04;;;;;;;58.38;5.18;;;3.80;99.90;;;;;;5048667;28;20097;-69
2023/02/06 07:28:32;;;;;;;59.55;4.47;;;3.80;99.90;;;;;;5047434;28;20033;-69
2023/02/06 07:31:02;;;;;;;46.13;5.20;;;3.80;99.90;;;;;;5048187;28;20049;-69
2023/02/06 07:33:28;;;;;;;;;;;3.80;99.90;;;;;;5045306;28;20105;-69
2023/02/06 07:35:54;;;;;;;55.20;5.20;;;3.80;99.90;;;;;;5080998;28;20003;-69
2023/02/06 07:38:20;;;;;;;53.55;5.57;;;3.80;99.90;;;;;;5080408;28;20049;-69
2023/02/06 07:40:46;;;;;;;52.83;5.03;;;3.80;99.90;;;;;;5047732;28;20505;-69
2023/02/06 07:43:12;;;;;;;52.97;4.40;;;3.80;99.90;;;;;;5047260;28;20049;-69
2023/02/06 07:45:38;;;;;;;68.88;5.70;;;3.80;99.90;;;;;;5063773;28;20502;-69
2023/02/06 07:48:04;;;;;;;77.22;6.78;;;3.80;99.90;;;;;;5051552;28;20172;-69
2023/02/06 07:50:31;;;;;;;60.05;6.35;;;3.90;99.90;;;;;;5047636;28;20198;-69
2023/02/06 07:52:57;;;;;;;71.70;5.93;;;3.90;99.90;;;;;;5047565;28;20128;-69
2023/02/06 07:55:23;;;;;;;58.47;5.57;;;4.00;99.90;;;;;;5063135;28;20076;-69
2023/02/06 07:57:48;;;;;;;67.80;6.70;;;4.00;99.90;;;;;;5047281;28;20138;-69
2023/02/06 08:00:15;;;;;;;67.63;6.13;;;4.20;99.90;;;;;;5046417;28;20037;-69
2023/02/06 08:02:40;;;;;;;60.75;6.10;;;4.20;99.90;;;;;;5046266;28;20056;-69
2023/02/06 08:05:08;;;;;;;62.60;5.95;;;4.30;99.90;;;;;;5046689;28;20053;-69
2023/02/06 08:07:33;;;;;;;72.97;7.00;;;4.40;99.90;;;;;;5045932;28;20045;-69
2023/02/06 08:09:59;;;;;;;74.85;6.82;;;4.50;99.90;;;;;;5077132;28;20068;-69
2023/02/06 08:12:25;;;;;;;67.53;5.65;;;4.60;99.90;;;;;;5061031;28;20060;-69
2023/02/06 08:14:51;;;;;;;71.07;7.18;;;4.60;99.90;;;;;;5049685;28;20079;-69
2023/02/06 08:17:18;;;;;;;77.65;6.60;;;4.70;99.90;;;;;;5044299;28;20483;-69
2023/02/06 08:19:43;;;;;;;66.97;6.85;;;4.70;99.90;;;;;;5045056;28;20056;-69
2023/02/06 08:22:09;;;;;;;78.25;6.57;;;4.90;99.90;;;;;;5046620;28;20041;-69
2023/02/06 08:24:36;;;;;;;60.05;6.15;;;5.00;99.90;;;;;;5046362;28;20053;-69
2023/02/06 08:27:01;;;;;;;78.25;7.40;;;5.00;99.90;;;;;;5048240;28;20455;-70
2023/02/06 08:29:27;;;;;;;73.28;7.13;;;5.10;99.90;;;;;;5049730;28;20505;-70
2023/02/06 08:31:54;;;;;;;100.50;8.80;;;5.20;99.90;;;;;;5046577;28;20059;-70
2023/02/06 08:34:20;;;;;;;78.72;6.47;;;5.30;99.90;;;;;;5046292;28;20045;-70
2023/02/06 08:36:46;;;;;;;66.82;6.35;;;5.30;99.90;;;;;;5058793;28;20168;-69
2023/02/06 08:39:13;;;;;;;93.22;7.20;;;5.30;99.90;;;;;;5062736;28;20052;-69
2023/02/06 08:41:40;;;;;;;72.72;5.65;;;5.40;99.90;;;;;;5046525;28;20167;-69
2023/02/06 08:44:10;;;;;;;68.63;6.35;;;5.40;99.90;;;;;;5048677;28;20048;-70
2023/02/06 08:46:38;;;;;;;72.70;6.65;;;5.50;99.90;;;;;;5046499;28;20041;-70
2023/02/06 08:49:18;;;;;;;81.43;7.57;;;5.60;99.90;;;;;;5069338;28;20048;-69
2023/02/06 08:51:44;;;;;;;70.93;6.22;;;5.60;99.90;;;;;;5045266;28;20040;-69
2023/02/06 08:54:15;;;;;;;84.97;7.72;;;5.70;99.90;;;;;;5036358;28;20128;-70
2023/02/06 08:56:41;;;;;;;68.43;7.07;;;5.70;99.90;;;;;;5047452;28;20129;-69
2023/02/06 08:59:09;;;;;;;72.45;5.93;;;5.80;99.90;;;;;;5046313;28;20044;-70
2023/02/06 09:01:36;;;;;;;72.45;6.25;;;5.90;99.90;;;;;;5079855;28;20061;-70
2023/02/06 09:04:06;;;;;;;65.55;5.30;;;6.00;99.90;;;;;;5078708;28;20052;-70
2023/02/06 09:06:34;;;;;;;64.38;6.05;;;6.10;99.90;;;;;;5046755;28;20045;-69
2023/02/06 09:09:00;;;;;;;65.55;5.95;;;6.10;99.90;;;;;;5025778;28;20044;-69
2023/02/06 09:11:26;;;;;;;60.63;5.88;;;6.10;99.90;;;;;;5050048;28;20036;-69
2023/02/06 09:13:57;;;;;;;72.15;5.75;;;6.20;99.90;;;;;;5061715;28;20064;-69
2023/02/06 09:16:25;;;;;;;82.03;6.28;;;6.20;99.90;;;;;;5074609;28;20055;-69
2023/02/06 09:18:52;;;;;;;60.63;6.13;;;6.20;99.90;;;;;;5061477;28;20080;-69
2023/02/06 09:21:25;;;;;;;70.80;6.30;;;6.30;99.90;;;;;;5043934;28;20094;-69
2023/02/06 09:23:55;;;;;;;66.00;5.43;;;6.30;99.90;;;;;;5062055;28;20490;-69
2023/02/06 09:26:27;;;;;;;64.00;5.82;;;6.40;99.90;;;;;;5044655;28;20576;-70
2023/02/06 09:28:55;;;;;;;59.78;4.90;;;6.40;99.90;;;;;;5061765;28;20134;-69
2023/02/06 09:31:21;;;;;;;62.92;5.82;;;6.40;99.90;;;;;;5045945;28;20080;-69
2023/02/06 09:33:46;;;;;;;52.08;5.55;;;6.40;99.90;;;;;;5045551;28;20130;-69
2023/02/06 09:36:15;;;;;;;70.00;6.68;;;6.40;99.90;;;;;;5047314;28;20053;-69
2023/02/06 09:38:44;;;;;;;60.33;6.55;;;6.40;99.90;;;;;;5079050;28;20403;-69
2023/02/06 09:41:18;;;;;;;65.43;7.85;;;6.40;99.90;;;;;;5046716;28;20037;-70
2023/02/06 09:43:55;;;;;;;57.60;6.20;;;6.40;99.90;;;;;;5046570;28;20128;-70
2023/02/06 09:46:26;;;;;;;53.00;5.57;;;6.50;99.90;;;;;;5046544;28;20513;-70
2023/02/06 09:48:54;;;;;;;66.30;6.63;;;6.50;99.90;;;;;;5046309;28;20057;-69
2023/02/06 09:51:58;;;;;;;41.63;5.22;;;6.50;99.90;;;;;;5045514;28;20036;-70
2023/02/06 09:54:37;;;;;;;48.03;5.70;;;6.50;99.90;;;;;;5032616;28;20053;-69
2023/02/06 09:57:24;;;;;;;48.65;6.57;;;6.60;99.90;;;;;;5043825;28;20048;-69
2023/02/06 10:00:20;;;;;;;60.80;7.00;;;6.60;99.90;;;;;;5045040;28;20120;-70
2023/02/06 10:03:03;;;;;;;51.97;6.05;;;6.70;99.90;;;;;;5049580;28;20052;-69
2023/02/06 10:05:30;;;;;;;53.25;5.47;;;6.70;99.90;;;;;;5044711;28;20051;-69
2023/02/06 10:08:21;;;;;;;55.42;4.95;;;6.80;99.90;;;;;;5036219;28;20094;-69
2023/02/06 10:10:54;;;;;;;47.15;5.53;;;6.80;99.90;;;;;;5031879;28;20050;-69
2023/02/06 10:13:29;;;;;;;57.05;5.95;;;6.80;99.90;;;;;;5047884;28;20052;-69
2023/02/06 10:16:00;;;;;;;56.33;6.20;;;6.90;99.90;;;;;;5078715;28;20049;-69
2023/02/06 10:18:40;;;;;;;47.65;5.03;;;6.90;99.90;;;;;;5077960;28;20545;-70
2023/02/06 10:21:19;;;;;;;55.03;5.38;;;6.90;99.90;;;;;;5077798;28;20045;-69
2023/02/06 10:23:54;;;;;;;53.53;6.53;;;6.90;99.90;;;;;;5078863;28;20049;-69
2023/02/06 10:26:21;;;;;;;53.15;5.82;;;7.00;99.90;;;;;;5060857;28;20440;-69
2023/02/06 10:28:58;;;;;;;48.20;5.75;;;7.00;99.90;;;;;;5062269;28;20399;-70
2023/02/06 10:31:24;;;;;;;48.63;5.35;;;7.00;99.90;;;;;;5077785;28;20041;-69
2023/02/06 10:33:56;;;;;;;41.85;5.72;;;7.10;99.90;;;;;;5045175;28;20506;-70
2023/02/06 10:36:24;;;;;;;51.20;6.13;;;7.10;99.90;;;;;;5044776;28;20554;-69
2023/02/06 10:39:27;;;;;;;46.85;5.60;;;7.20;99.90;;;;;;5078322;28;20429;-70
2023/02/06 10:42:04;;;;;;;39.97;6.10;;;7.20;99.90;;;;;;5032426;28;20075;-69
2023/02/06 10:44:47;;;;;;;35.08;5.03;;;7.30;99.90;;;;;;5048886;28;20045;-70
2023/02/06 10:47:45;;;;;;;44.10;6.15;;;7.30;99.90;;;;;;5047961;28;20099;-69
2023/02/06 10:50:17;;;;;;;49.13;5.45;;;7.30;99.90;;;;;;5048382;28;20140;-70
2023/02/06 10:52:44;;;;;;;47.63;5.88;;;7.30;99.90;;;;;;5048577;28;20041;-70
2023/02/06 10:55:24;;;;;;;40.63;5.43;;;7.30;99.90;;;;;;5048215;28;20513;-69
2023/02/06 10:58:14;;;;;;;41.53;4.70;;;7.30;99.90;;;;;;5041904;28;20048;-69
2023/02/06 11:00:44;;;;;;;49.63;5.10;;;7.30;99.90;;;;;;5034611;28;20064;-69
2023/02/06 11:03:15;;;;;;;34.97;4.97;;;7.40;99.90;;;;;;5073774;28;20131;-69
2023/02/06 11:05:40;;;;;;;51.00;5.72;;;7.40;99.90;;;;;;5034544;28;20049;-69
2023/02/06 11:08:30;;;;;;;39.20;4.13;;;7.40;99.90;;;;;;5049284;28;20418;-69
2023/02/06 11:10:56;;;;;;;49.35;6.25;;;7.40;99.90;;;;;;5049764;28;20053;-69
2023/02/06 11:13:27;;;;;;;48.50;6.18;;;7.50;99.90;;;;;;5050216;28;20070;-69
2023/02/06 11:16:07;;;;;;;;;;;7.50;99.90;;;;;;5079789;28;20057;-69
2023/02/06 11:18:34;;;;;;;;;;;7.50;99.90;;;;;;5052007;28;20294;-69
2023/02/06 11:21:01;;;;;;;47.08;4.90;;;7.50;99.90;;;;;;5049550;28;19921;-69
2023/02/06 11:23:29;;;;;;;35.60;3.78;;;7.60;99.90;;;;;;5082469;28;20052;-69
2023/02/06 11:26:15;;;;;;;41.88;4.38;;;7.60;99.90;;;;;;5035968;28;20060;-69
2023/02/06 11:28:54;;;;;;;33.13;4.57;;;7.70;99.90;;;;;;5048125;28;20574;-69
2023/02/06 11:31:39;;;;;;;38.70;4.35;;;7.70;99.90;;;;;;5046557;28;20051;-69
2023/02/06 11:34:16;;;;;;;41.22;6.05;;;7.70;99.90;;;;;;5045105;28;20045;-69
2023/02/06 11:36:42;;;;;;;39.03;5.07;;;7.70;99.90;;;;;;5044711;28;20052;-69
2023/02/06 11:39:25;;;;;;;39.42;4.65;;;7.80;99.90;;;;;;5046270;28;20112;-70
2023/02/06 11:42:00;;;;;;;37.03;5.13;;;7.80;99.90;;;;;;5045240;28;20087;-69
2023/02/06 11:44:33;;;;;;;42.25;5.32;;;7.80;99.90;;;;;;5081676;28;20518;-70
2023/02/06 11:47:29;;;;;;;37.72;4.75;;;7.80;99.90;;;;;;5072657;28;20518;-69
2023/02/06 11:50:15;;;;;;;33.17;4.72;;;7.80;99.90;;;;;;5043860;28;20049;-69
2023/02/06 11:52:44;;;;;;;40.58;4.72;;;7.90;99.90;;;;;;5039369;28;20166;-68
2023/02/06 11:55:27;;;;;;;36.92;4.68;;;7.90;99.90;;;;;;5044298;28;20526;-69
2023/02/06 11:58:11;;;;;;;37.20;5.35;;;7.90;99.90;;;;;;5046811;28;20045;-69
2023/02/06 12:00:40;;;;;;;35.00;4.22;;;7.90;99.90;;;;;;5045281;28;20067;-68
2023/02/06 12:03:50;;;;;;;34.70;5.05;;;8.00;99.90;;;;;;5048527;28;20476;-68
2023/02/06 12:06:23;;;;;;;35.53;5.25;;;7.90;99.90;;;;;;5067739;28;20057;-69
2023/02/06 12:08:54;;;;;;;39.38;5.13;;;7.90;99.90;;;;;;5045684;28;20052;-68
2023/02/06 12:11:45;;;;;;;39.15;5.07;;;7.90;99.90;;;;;;5046968;28;20081;-68
2023/02/06 12:14:39;;;;;;;30.20;4.47;;;7.90;99.90;;;;;;5046185;28;20033;-68
2023/02/06 12:17:22;;;;;;;39.80;5.70;;;7.80;99.90;;;;;;5047228;28;20074;-69
2023/02/06 12:20:14;;;;;;;34.78;4.55;;;7.90;99.90;;;;;;5039999;28;20120;-68
2023/02/06 12:22:45;;;;;;;29.75;4.47;;;7.90;99.90;;;;;;5076130;28;20517;-69
2023/02/06 12:25:33;;;;;;;41.50;4.85;;;7.90;99.90;;;;;;5048347;28;20053;-69
2023/02/06 12:28:45;;;;;;;35.72;4.45;;;7.90;99.90;;;;;;5045386;28;20041;-68
2023/02/06 12:31:34;;;;;;;34.88;5.30;;;7.80;99.90;;;;;;5033917;28;20075;-69
2023/02/06 12:34:18;;;;;;;44.00;4.95;;;7.90;99.90;;;;;;5041441;28;20147;-68
2023/02/06 12:37:12;;;;;;;39.75;5.10;;;7.90;99.90;;;;;;5045079;28;20166;-69
2023/02/06 12:39:44;;;;;;;36.95;4.93;;;8.00;99.90;;;;;;5076588;28;20490;-69
2023/02/06 12:42:24;;;;;;;38.17;4.43;;;8.00;99.90;;;;;;5046639;28;20494;-68
2023/02/06 12:45:02;;;;;;;28.77;4.10;;;8.00;99.90;;;;;;5046601;28;21405;-68
2023/02/06 12:47:33;;;;;;;33.97;5.05;;;7.90;99.90;;;;;;5077710;28;20088;-68
2023/02/06 12:50:12;;;;;;;31.55;4.53;;;8.00;99.90;;;;;;5045343;28;20060;-68
2023/02/06 12:52:48;;;;;;;45.08;4.53;;;8.10;99.90;;;;;;5059337;28;20364;-69
2023/02/06 12:55:17;;;;;;;34.75;4.38;;;8.20;99.90;;;;;;5045170;28;20600;-68
2023/02/06 12:57:43;;;;;;;38.22;4.35;;;8.20;99.90;;;;;;5044772;28;20063;-69
2023/02/06 13:00:43;;;;;;;36.88;4.25;;;8.20;99.90;;;;;;5078341;28;20040;-68
2023/02/06 13:03:27;;;;;;;30.85;4.30;;;8.20;99.90;;;;;;5037531;28;20052;-68
2023/02/06 13:06:32;;;;;;;25.65;4.28;;;8.30;99.90;;;;;;5043761;28;20483;-68
2023/02/06 13:09:01;;;;;;;27.27;4.07;;;8.30;99.90;;;;;;5050695;28;20458;-69